createdAt,value
2023-03-25T00:00:23.824Z,96152.00
2023-03-25T00:05:24.634Z,96155.00
2023-03-25T00:10:25.862Z,96155.00
2023-03-25T00:15:29.366Z,96161.00
2023-03-25T00:20:31.615Z,96152.00
2023-03-25T00:25:32.968Z,96165.00
2023-03-25T00:30:33.747Z,96159.00
2023-03-25T00:35:36.641Z,96165.00
2023-03-25T00:40:37.794Z,96162.00
2023-03-25T00:45:38.875Z,96169.00
2023-03-25T00:50:41.081Z,96180.00
2023-03-25T00:55:41.938Z,96172.00
2023-03-25T01:00:42.787Z,96169.00
2023-03-25T01:05:43.757Z,96166.00
2023-03-25T01:10:44.537Z,96152.00
2023-03-25T01:15:45.399Z,96148.00
2023-03-25T01:20:46.334Z,96148.00
2023-03-25T01:25:47.261Z,96129.00
2023-03-25T01:30:50.162Z,96137.00
2023-03-25T01:35:51.160Z,96133.00
2023-03-25T01:40:53.175Z,96137.00
2023-03-25T01:45:53.952Z,96139.00
2023-03-25T01:51:05.076Z,96139.00
2023-03-25T01:56:09.623Z,96136.00
2023-03-25T02:01:13.128Z,96125.00
2023-03-25T02:06:20.209Z,96119.00
2023-03-25T02:11:21.309Z,96109.00
2023-03-25T02:17:35.820Z,96107.00
2023-03-25T02:23:21.199Z,96098.00
2023-03-25T02:30:32.571Z,96097.00
2023-03-25T02:41:30.616Z,96096.00
2023-03-25T02:46:33.188Z,96081.00
2023-03-25T02:51:43.316Z,96087.00
2023-03-25T02:56:48.460Z,96066.00
2023-03-25T03:01:57.945Z,96075.00
2023-03-25T03:06:58.951Z,96069.00
2023-03-25T03:14:59.923Z,96064.00
2023-03-25T03:20:17.245Z,96061.00
2023-03-25T03:25:42.849Z,96064.00
2023-03-25T03:30:49.583Z,96060.00
2023-03-25T03:35:57.859Z,96058.00
2023-03-25T03:41:07.349Z,96067.00
2023-03-25T03:46:15.727Z,96077.00
2023-03-25T03:51:24.228Z,96080.00
2023-03-25T03:56:36.262Z,96085.00
2023-03-25T04:01:54.831Z,96080.00
2023-03-25T04:07:04.260Z,96087.00
2023-03-25T04:12:10.485Z,96096.00
2023-03-25T04:17:11.914Z,96101.00
2023-03-25T04:22:12.873Z,96118.00
2023-03-25T04:27:15.138Z,96111.00
2023-03-25T04:32:16.914Z,96116.00
2023-03-25T04:37:17.738Z,96120.00
2023-03-25T04:42:18.921Z,96131.00
2023-03-25T04:47:23.703Z,96141.00
2023-03-25T04:52:24.568Z,96145.00
2023-03-25T04:57:25.589Z,96147.00
2023-03-25T05:02:26.724Z,96154.00
2023-03-25T05:07:32.068Z,96160.00
2023-03-25T05:12:32.841Z,96158.00
2023-03-25T05:17:33.678Z,96156.00
2023-03-25T05:22:37.039Z,96156.00
2023-03-25T05:27:37.820Z,96162.00
2023-03-25T05:32:40.334Z,96157.00
2023-03-25T05:37:41.368Z,96160.00
2023-03-25T05:42:46.116Z,96170.00
2023-03-25T05:47:47.278Z,96179.00
2023-03-25T05:52:49.125Z,96171.00
2023-03-25T05:57:49.914Z,96176.00
2023-03-25T06:02:51.507Z,96190.00
2023-03-25T06:07:55.737Z,96197.00
2023-03-25T06:12:56.557Z,96201.00
2023-03-25T06:17:57.921Z,96191.00
2023-03-25T06:22:58.834Z,96191.00
2023-03-25T06:28:02.467Z,96197.00
2023-03-25T06:33:05.304Z,96185.00
2023-03-25T06:38:06.456Z,96194.00
2023-03-25T06:43:22.448Z,96180.00
2023-03-25T06:48:38.108Z,96190.00
2023-03-25T06:53:39.055Z,96180.00
2023-03-25T06:58:40.998Z,96191.00
2023-03-25T07:03:42.901Z,96180.00
2023-03-25T07:08:44.019Z,96179.00
2023-03-25T07:13:44.851Z,96173.00
2023-03-25T07:18:45.870Z,96172.00
2023-03-25T07:23:47.106Z,96176.00
2023-03-25T07:28:47.966Z,96171.00
2023-03-25T07:33:50.626Z,96160.00
2023-03-25T07:38:51.612Z,96176.00
2023-03-25T07:43:52.408Z,96159.00
2023-03-25T07:49:02.273Z,96165.00
2023-03-25T07:54:05.322Z,96174.00
2023-03-25T07:59:08.668Z,96177.00
2023-03-25T08:04:09.797Z,96175.00
2023-03-25T08:09:10.969Z,96182.00
2023-03-25T08:14:11.737Z,96179.00
2023-03-25T08:19:12.526Z,96182.00
2023-03-25T08:24:13.277Z,96188.00
2023-03-25T08:29:16.759Z,96172.00
2023-03-25T08:34:19.559Z,96184.00
2023-03-25T08:39:21.238Z,96176.00
2023-03-25T08:44:22.298Z,96187.00
2023-03-25T08:49:23.342Z,96171.00
2023-03-25T08:54:25.315Z,96180.00
2023-03-25T08:59:26.096Z,96170.00
2023-03-25T09:04:26.951Z,96167.00
2023-03-25T09:09:29.140Z,96229.00
2023-03-25T09:14:30.027Z,96248.00
2023-03-25T09:19:32.786Z,96243.00
2023-03-25T09:24:34.920Z,96258.00
2023-03-25T09:29:35.756Z,96259.00
2023-03-25T09:34:37.948Z,96234.00
2023-03-25T09:39:39.019Z,96234.00
2023-03-25T09:45:33.735Z,96239.00
2023-03-25T09:50:36.034Z,96240.00
2023-03-25T09:55:42.250Z,96254.00
2023-03-25T10:00:46.357Z,96243.00
2023-03-25T10:06:25.499Z,96249.00
2023-03-25T10:12:01.079Z,96244.00
2023-03-25T10:17:15.498Z,96236.00
2023-03-25T10:22:23.953Z,96245.00
2023-03-25T10:27:41.411Z,96242.00
2023-03-25T10:32:57.654Z,96239.00
2023-03-25T10:38:13.679Z,96219.00
2023-03-25T10:43:25.550Z,96234.00
2023-03-25T10:48:31.185Z,96234.00
2023-03-25T10:53:32.114Z,96224.00
2023-03-25T10:58:36.450Z,96255.00
2023-03-25T11:03:39.905Z,96244.00
2023-03-25T11:09:11.573Z,96248.00
2023-03-25T11:14:14.586Z,96252.00
2023-03-25T11:19:21.874Z,96254.00
2023-03-25T11:24:31.894Z,96250.00
2023-03-25T11:29:34.399Z,96270.00
2023-03-25T11:34:41.254Z,96256.00
2023-03-25T11:39:42.620Z,96257.00
2023-03-25T11:44:52.854Z,96246.00
2023-03-25T11:49:53.771Z,96246.00
2023-03-25T11:54:55.467Z,96267.00
2023-03-25T12:00:19.666Z,96257.00
2023-03-25T12:05:20.521Z,96244.00
2023-03-25T12:10:51.526Z,96263.00
2023-03-25T12:16:27.817Z,96271.00
2023-03-25T12:21:55.534Z,96249.00
2023-03-25T12:28:44.095Z,96261.00
2023-03-25T12:34:14.063Z,96249.00
2023-03-25T12:39:52.886Z,96258.00
2023-03-25T12:45:14.122Z,96256.00
2023-03-25T12:51:06.380Z,96245.00
2023-03-25T12:57:50.756Z,96238.00
2023-03-25T13:09:39.998Z,96243.00
2023-03-25T13:14:57.271Z,96250.00
2023-03-25T13:20:01.840Z,96254.00
2023-03-25T13:25:07.481Z,96245.00
2023-03-25T13:30:20.476Z,96270.00
2023-03-25T13:35:36.776Z,96243.00
2023-03-25T13:41:04.355Z,96245.00
2023-03-25T13:46:09.796Z,96238.00
2023-03-25T13:51:10.858Z,96238.00
2023-03-25T14:03:56.389Z,96181.00
2023-03-25T14:13:01.409Z,96233.00
2023-03-25T14:18:04.720Z,96230.00
2023-03-25T14:23:11.900Z,96238.00
2023-03-25T14:28:47.020Z,96240.00
2023-03-25T14:35:46.403Z,96236.00
2023-03-25T14:41:02.795Z,96242.00
2023-03-25T14:46:34.084Z,96240.00
2023-03-25T14:51:56.186Z,96237.00
2023-03-25T14:57:15.101Z,96234.00
2023-03-25T15:02:27.945Z,96236.00
2023-03-25T15:07:43.632Z,96249.00
2023-03-25T15:12:51.617Z,96229.00
2023-03-25T15:17:52.443Z,96230.00
2023-03-25T15:23:29.074Z,96236.00
2023-03-25T15:29:02.780Z,96237.00
2023-03-25T15:37:54.177Z,96235.00
2023-03-25T15:44:00.568Z,96238.00
2023-03-25T15:52:03.445Z,96234.00
2023-03-25T15:57:22.399Z,96229.00
2023-03-25T16:02:30.521Z,96222.00
2023-03-25T16:07:33.706Z,96206.00
2023-03-25T16:12:34.506Z,96222.00
2023-03-25T16:17:35.820Z,96226.00
2023-03-25T16:22:37.126Z,96223.00
2023-03-25T16:27:44.224Z,96210.00
2023-03-25T16:32:45.372Z,96226.00
2023-03-25T16:37:46.719Z,96234.00
2023-03-25T16:42:48.056Z,96221.00
2023-03-25T16:47:49.381Z,96237.00
2023-03-25T16:52:50.839Z,96230.00
2023-03-25T16:57:51.674Z,96252.00
2023-03-25T17:02:53.238Z,96254.00
2023-03-25T17:08:03.246Z,96242.00
2023-03-25T17:13:08.151Z,96261.00
2023-03-25T17:18:14.242Z,96266.00
2023-03-25T17:23:44.953Z,96287.00
2023-03-25T17:29:21.760Z,96279.00
2023-03-25T17:34:23.516Z,96287.00
2023-03-25T17:39:31.367Z,96279.00
2023-03-25T17:44:37.438Z,96283.00
2023-03-25T17:49:38.392Z,96285.00
2023-03-25T17:54:39.234Z,96282.00
2023-03-25T17:59:40.301Z,96294.00
2023-03-25T18:04:41.422Z,96310.00
2023-03-25T18:09:42.343Z,96302.00
2023-03-25T18:14:43.734Z,96310.00
2023-03-25T18:19:44.748Z,96313.00
2023-03-25T18:24:45.551Z,96305.00
2023-03-25T18:29:46.444Z,96315.00
2023-03-25T18:34:47.197Z,96309.00
2023-03-25T18:39:48.061Z,96324.00
2023-03-25T18:44:51.365Z,96326.00
2023-03-25T18:49:54.476Z,96329.00
2023-03-25T18:54:55.465Z,96335.00
2023-03-25T18:59:56.338Z,96345.00
2023-03-25T19:05:00.980Z,96366.00
2023-03-25T19:10:03.205Z,96353.00
2023-03-25T19:15:04.613Z,96356.00
2023-03-25T19:20:06.824Z,96351.00
2023-03-25T19:25:08.671Z,96359.00
2023-03-25T19:30:14.991Z,96361.00
2023-03-25T19:35:18.017Z,96374.00
2023-03-25T19:40:23.237Z,96386.00
2023-03-25T19:45:26.774Z,96392.00
2023-03-25T19:50:31.272Z,96393.00
2023-03-25T19:55:32.073Z,96391.00
2023-03-25T20:00:32.896Z,96386.00
2023-03-25T20:05:35.358Z,96384.00
2023-03-25T20:10:38.402Z,96384.00
2023-03-25T20:15:39.198Z,96379.00
2023-03-25T20:20:40.175Z,96364.00
2023-03-25T20:25:41.423Z,96363.00
2023-03-25T20:30:42.304Z,96347.00
2023-03-25T20:35:43.156Z,96343.00
2023-03-25T20:40:45.358Z,96347.00
2023-03-25T20:45:46.352Z,96356.00
2023-03-25T20:50:50.647Z,96355.00
2023-03-25T20:55:51.511Z,96352.00
2023-03-25T21:00:55.206Z,96348.00
2023-03-25T21:05:57.835Z,96357.00
2023-03-25T21:11:00.884Z,96364.00
2023-03-25T21:16:01.854Z,96368.00
2023-03-25T21:21:03.034Z,96369.00
2023-03-25T21:26:08.504Z,96381.00
2023-03-25T21:31:17.080Z,96376.00
2023-03-25T21:36:21.048Z,96383.00
2023-03-25T21:41:22.273Z,96398.00
2023-03-25T21:46:26.752Z,96402.00
2023-03-25T21:51:29.681Z,96412.00
2023-03-25T21:56:31.658Z,96394.00
2023-03-25T22:01:32.782Z,96395.00
2023-03-25T22:06:36.312Z,96404.00
2023-03-25T22:11:37.396Z,96405.00
2023-03-25T22:16:38.252Z,96399.00
2023-03-25T22:21:39.037Z,96386.00
2023-03-25T22:26:41.552Z,96383.00
2023-03-25T22:31:42.341Z,96396.00
2023-03-25T22:36:49.009Z,96397.00
2023-03-25T22:41:50.162Z,96420.00
2023-03-25T22:46:51.463Z,96425.00
2023-03-25T22:51:53.278Z,96417.00
2023-03-25T22:56:54.222Z,96435.00
2023-03-25T23:01:55.302Z,96436.00
2023-03-25T23:07:06.877Z,96430.00
2023-03-25T23:12:11.655Z,96433.00
2023-03-25T23:17:12.884Z,96428.00
2023-03-25T23:22:15.874Z,96424.00
2023-03-25T23:27:17.067Z,96421.00
2023-03-25T23:32:17.887Z,96415.00
2023-03-25T23:37:21.786Z,96404.00
2023-03-25T23:42:22.838Z,96397.00
2023-03-25T23:47:36.113Z,96403.00
2023-03-25T23:52:36.857Z,96399.00
2023-03-25T23:57:37.663Z,96411.00
